Time;durP1;ratioP1;P1;durP2;ratioP2;P2;SDS_P1;SDS_P2;PMS_P1;PMS_P2;Temp;Humidity;BMP_temperature;BMP_pressure;BME280_temperature;BME280_humidity;BME280_pressure;Samples;Min_cycle;Max_cycle;Signal;HPM_P1;HPM_P2
2021/03/09 00:02:13;;;;;;;15.53;9.23;;;2.20;99.90;;;;;;5117791;28;20032;-69
2021/03/09 00:04:39;;;;;;;15.47;9.00;;;2.20;99.90;;;;;;5118243;28;20027;-70
2021/03/09 00:07:04;;;;;;;20.67;9.30;;;2.20;99.90;;;;;;5119193;28;20024;-70
2021/03/09 00:09:30;;;;;;;17.03;8.63;;;2.20;99.90;;;;;;5101933;28;20031;-70
2021/03/09 00:11:56;;;;;;;13.47;9.03;;;2.20;99.90;;;;;;5120060;28;20035;-70
2021/03/09 00:14:21;;;;;;;14.37;8.07;;;2.20;99.90;;;;;;5099481;28;20074;-69
2021/03/09 00:16:47;;;;;;;15.17;8.90;;;2.20;99.90;;;;;;5098784;28;20433;-69
2021/03/09 00:19:13;;;;;;;16.53;9.10;;;2.20;99.90;;;;;;5117004;28;20028;-69
2021/03/09 00:21:38;;;;;;;14.30;8.80;;;2.20;99.90;;;;;;5100740;28;20023;-69
2021/03/09 00:24:04;;;;;;;16.23;8.37;;;2.20;99.90;;;;;;5101333;28;20402;-68
2021/03/09 00:26:30;;;;;;;20.15;8.82;;;2.20;99.90;;;;;;5118486;28;20024;-70
2021/03/09 00:28:55;;;;;;;17.07;9.27;;;2.20;99.90;;;;;;5099308;28;20019;-70
2021/03/09 00:31:21;;;;;;;15.73;8.10;;;2.20;99.90;;;;;;5117940;28;20028;-69
2021/03/09 00:33:47;;;;;;;13.77;8.53;;;2.20;99.90;;;;;;5118334;28;20076;-69
2021/03/09 00:36:12;;;;;;;16.73;9.37;;;2.20;99.90;;;;;;5098908;28;20160;-69
2021/03/09 00:38:38;;;;;;;15.40;9.00;;;2.20;99.90;;;;;;5117192;28;20486;-70
2021/03/09 00:41:03;;;;;;;17.17;8.67;;;2.10;99.90;;;;;;5116915;28;20523;-70
2021/03/09 00:43:29;;;;;;;21.30;10.07;;;2.10;99.90;;;;;;5097641;28;20026;-70
2021/03/09 00:45:55;;;;;;;19.27;9.20;;;2.10;99.90;;;;;;5116148;28;20104;-70
2021/03/09 00:48:20;;;;;;;15.90;9.10;;;2.00;99.90;;;;;;5097527;28;20062;-69
2021/03/09 00:50:46;;;;;;;14.87;9.13;;;2.00;99.90;;;;;;5115755;28;20123;-69
2021/03/09 00:53:11;;;;;;;20.70;10.43;;;2.00;99.90;;;;;;5114263;28;20059;-70
2021/03/09 00:55:37;;;;;;;16.70;9.13;;;1.90;99.90;;;;;;5097015;28;20126;-70
2021/03/09 00:58:03;;;;;;;17.20;9.30;;;1.90;99.90;;;;;;5115244;28;20058;-70
2021/03/09 01:00:29;;;;;;;18.47;9.93;;;1.80;99.90;;;;;;5115375;28;20030;-70
2021/03/09 01:02:55;;;;;;;18.52;9.63;;;1.80;99.90;;;;;;5115331;28;20425;-71
2021/03/09 01:05:22;;;;;;;22.50;10.43;;;1.80;99.90;;;;;;5115714;28;20048;-69
2021/03/09 01:07:47;;;;;;;16.88;8.90;;;1.80;99.90;;;;;;5115457;28;20073;-70
2021/03/09 01:10:15;;;;;;;17.25;9.90;;;1.80;99.90;;;;;;5097445;28;20035;-70
2021/03/09 01:12:41;;;;;;;18.50;9.50;;;1.70;99.90;;;;;;5096912;28;20020;-70
2021/03/09 01:15:08;;;;;;;16.63;9.65;;;1.70;99.90;;;;;;5096730;28;20027;-70
2021/03/09 01:17:34;;;;;;;;;;;1.70;99.90;;;;;;5097275;28;20127;-70
2021/03/09 01:20:00;;;;;;;19.77;9.82;;;1.70;99.90;;;;;;5096861;28;20006;-70
2021/03/09 01:22:26;;;;;;;17.63;9.27;;;1.60;99.90;;;;;;5096480;28;20087;-70
2021/03/09 01:24:52;;;;;;;18.60;9.75;;;1.60;99.90;;;;;;5096714;28;20045;-70
2021/03/09 01:27:18;;;;;;;17.05;9.23;;;1.60;99.90;;;;;;5121064;28;20083;-69
2021/03/09 01:29:44;;;;;;;17.08;9.35;;;1.60;99.90;;;;;;5117132;28;20102;-70
2021/03/09 01:32:10;;;;;;;15.27;8.73;;;1.50;99.90;;;;;;5096627;28;20124;-70
2021/03/09 01:34:36;;;;;;;19.30;9.40;;;1.50;99.90;;;;;;5114852;28;20480;-70
2021/03/09 01:37:03;;;;;;;17.40;9.60;;;1.40;99.90;;;;;;5114813;28;20107;-69
2021/03/09 01:39:29;;;;;;;16.52;9.57;;;1.40;99.90;;;;;;5096576;28;20363;-71
2021/03/09 01:41:54;;;;;;;21.50;9.30;;;1.30;99.90;;;;;;5114711;28;20019;-69
2021/03/09 01:44:20;;;;;;;19.63;10.20;;;1.20;99.90;;;;;;5114593;28;20020;-69
2021/03/09 01:46:47;;;;;;;19.33;9.30;;;1.20;99.90;;;;;;5114607;28;20043;-70
2021/03/09 01:49:15;;;;;;;16.77;9.85;;;1.20;99.90;;;;;;5114740;28;20019;-70
2021/03/09 01:51:45;;;;;;;17.70;9.23;;;1.10;99.90;;;;;;5096184;28;20020;-70
2021/03/09 01:54:12;;;;;;;17.13;9.52;;;1.20;99.90;;;;;;5114405;28;20012;-70
2021/03/09 01:56:40;;;;;;;15.57;9.38;;;1.10;99.90;;;;;;5095863;28;20028;-69
2021/03/09 01:59:07;;;;;;;16.40;8.77;;;1.10;99.90;;;;;;5114263;28;20551;-70
2021/03/09 02:01:34;;;;;;;15.70;9.05;;;1.10;99.90;;;;;;5114655;28;20488;-69
2021/03/09 02:03:59;;;;;;;18.95;9.85;;;1.10;99.90;;;;;;5114019;28;20539;-69
2021/03/09 02:06:25;;;;;;;21.27;9.90;;;1.10;99.90;;;;;;5114195;28;20062;-69
2021/03/09 02:08:51;;;;;;;17.87;9.63;;;1.10;99.90;;;;;;5114155;28;20094;-71
2021/03/09 02:11:45;;;;;;;18.63;9.75;;;1.10;99.90;;;;;;5114013;28;20019;-70
2021/03/09 02:14:48;;;;;;;22.17;10.75;;;1.10;99.90;;;;;;5114124;28;20500;-70
2021/03/09 02:17:29;;;;;;;20.60;9.77;;;1.00;99.90;;;;;;5054956;28;20084;-69
2021/03/09 02:20:36;;;;;;;18.13;9.88;;;0.90;99.90;;;;;;5114232;28;20024;-71
2021/03/09 02:23:34;;;;;;;20.02;10.40;;;0.80;99.90;;;;;;5031620;28;20037;-70
2021/03/09 02:26:33;;;;;;;21.42;10.15;;;0.70;99.90;;;;;;5095930;28;20022;-70
2021/03/09 02:29:11;;;;;;;20.63;9.95;;;0.70;99.90;;;;;;5095682;28;20062;-70
2021/03/09 02:31:40;;;;;;;22.00;10.20;;;0.70;99.90;;;;;;5114462;28;20020;-70
2021/03/09 02:34:12;;;;;;;18.85;9.82;;;0.70;99.90;;;;;;5114724;28;20077;-70
2021/03/09 02:36:39;;;;;;;21.08;11.48;;;0.70;99.90;;;;;;5114632;28;20112;-70
2021/03/09 02:39:08;;;;;;;20.23;11.00;;;0.80;99.90;;;;;;5114442;28;20098;-70
2021/03/09 02:41:44;;;;;;;19.73;10.80;;;0.70;99.90;;;;;;5114350;28;20036;-70
2021/03/09 02:44:13;;;;;;;19.48;10.75;;;0.80;99.90;;;;;;5114213;28;20015;-70
2021/03/09 02:46:40;;;;;;;17.42;9.95;;;0.80;99.90;;;;;;5114057;28;20016;-70
2021/03/09 02:49:08;;;;;;;21.65;11.77;;;0.80;99.90;;;;;;5114220;28;20024;-70
2021/03/09 02:51:36;;;;;;;20.58;11.05;;;0.70;99.90;;;;;;5095485;28;20034;-70
2021/03/09 02:54:03;;;;;;;18.35;10.85;;;0.70;99.90;;;;;;5113416;28;20032;-70
2021/03/09 02:56:29;;;;;;;20.48;11.10;;;0.70;99.90;;;;;;5095113;28;20060;-70
2021/03/09 02:58:56;;;;;;;19.08;11.20;;;0.60;99.90;;;;;;5113993;28;20055;-70
2021/03/09 03:01:28;;;;;;;20.08;10.40;;;0.60;99.90;;;;;;5113223;28;20344;-70
2021/03/09 03:03:54;;;;;;;20.35;10.63;;;0.50;99.90;;;;;;5095039;28;20020;-70
2021/03/09 03:06:21;;;;;;;22.80;11.52;;;0.60;99.90;;;;;;5113206;28;20053;-70
2021/03/09 03:08:47;;;;;;;24.08;13.43;;;0.60;99.90;;;;;;5113405;28;20023;-70
2021/03/09 03:11:14;;;;;;;;;;;0.60;99.90;;;;;;5113797;28;20446;-70
2021/03/09 03:13:41;;;;;;;23.77;11.43;;;0.60;99.90;;;;;;5095285;28;19950;-70
2021/03/09 03:16:08;;;;;;;22.08;11.15;;;0.60;99.90;;;;;;5115725;28;20338;-70
2021/03/09 03:18:41;;;;;;;22.40;11.65;;;0.60;99.90;;;;;;5109226;28;20034;-70
2021/03/09 03:21:12;;;;;;;22.02;11.38;;;0.60;99.90;;;;;;5118522;28;20023;-71
2021/03/09 03:23:39;;;;;;;23.45;11.38;;;0.60;99.90;;;;;;5117807;28;20027;-70
2021/03/09 03:26:07;;;;;;;24.75;13.13;;;0.60;99.90;;;;;;5117755;28;20020;-70
2021/03/09 03:28:34;;;;;;;20.48;11.23;;;0.60;99.90;;;;;;5117909;28;20016;-70
2021/03/09 03:31:03;;;;;;;22.02;10.77;;;0.60;99.90;;;;;;5117916;28;20051;-70
2021/03/09 03:33:29;;;;;;;24.02;11.02;;;0.60;99.90;;;;;;5099288;28;20115;-70
2021/03/09 03:35:59;;;;;;;26.50;12.13;;;0.60;99.90;;;;;;5117551;28;20490;-70
2021/03/09 03:38:25;;;;;;;22.77;11.13;;;0.60;99.90;;;;;;5117276;28;20488;-70
2021/03/09 03:40:51;;;;;;;24.48;11.23;;;0.60;99.90;;;;;;5117354;28;20514;-71
2021/03/09 03:43:16;;;;;;;22.17;11.83;;;0.60;99.90;;;;;;5117763;28;20028;-69
2021/03/09 03:45:42;;;;;;;19.33;11.80;;;0.60;99.90;;;;;;5117375;28;20078;-70
2021/03/09 03:48:08;;;;;;;22.37;12.83;;;0.50;99.90;;;;;;5100101;28;20027;-71
2021/03/09 03:50:34;;;;;;;23.83;12.40;;;0.50;99.90;;;;;;5099812;28;20032;-70
2021/03/09 03:53:21;;;;;;;27.05;12.45;;;0.50;99.90;;;;;;5117597;28;20468;-71
2021/03/09 03:56:00;;;;;;;27.55;12.32;;;0.50;99.90;;;;;;5100596;28;20085;-70
2021/03/09 03:58:45;;;;;;;20.55;11.65;;;0.40;99.90;;;;;;5120368;28;20024;-69
2021/03/09 04:01:13;;;;;;;23.95;11.88;;;0.40;99.90;;;;;;5119064;28;20030;-69
2021/03/09 04:03:40;;;;;;;24.23;12.52;;;0.40;99.90;;;;;;5118766;28;20023;-69
2021/03/09 04:06:06;;;;;;;;;;;0.40;99.90;;;;;;5100431;28;20019;-70
2021/03/09 04:08:37;;;;;;;21.58;11.90;;;0.40;99.90;;;;;;5117095;28;20272;-69
2021/03/09 04:11:04;;;;;;;24.40;12.13;;;0.40;99.90;;;;;;5099743;28;20027;-69
2021/03/09 04:13:32;;;;;;;23.23;11.95;;;0.40;99.90;;;;;;5119097;28;20027;-68
2021/03/09 04:16:00;;;;;;;24.95;13.00;;;0.40;99.90;;;;;;5099524;28;20019;-69
2021/03/09 04:18:27;;;;;;;22.85;11.98;;;0.40;99.90;;;;;;5099408;28;20030;-69
2021/03/09 04:20:54;;;;;;;23.23;12.18;;;0.30;99.90;;;;;;5117115;28;20070;-69
2021/03/09 04:23:21;;;;;;;23.45;12.45;;;0.30;99.90;;;;;;5098456;28;20020;-69
2021/03/09 04:25:47;;;;;;;;;;;0.30;99.90;;;;;;5118243;28;20019;-68
2021/03/09 04:28:13;;;;;;;24.92;12.68;;;0.30;99.90;;;;;;5118004;28;20290;-69
2021/03/09 04:30:40;;;;;;;;;;;0.30;99.90;;;;;;5119397;28;20026;-70
2021/03/09 04:33:06;;;;;;;26.70;12.55;;;0.30;99.90;;;;;;5118238;28;19903;-69
2021/03/09 04:35:33;;;;;;;23.00;11.75;;;0.30;99.90;;;;;;5100090;28;20080;-69
2021/03/09 04:37:59;;;;;;;24.17;12.80;;;0.30;99.90;;;;;;5100451;28;20138;-69
2021/03/09 04:40:25;;;;;;;24.10;13.15;;;0.20;99.90;;;;;;5099714;28;20151;-69
2021/03/09 04:42:51;;;;;;;26.00;13.07;;;0.20;99.90;;;;;;5117091;28;20023;-69
2021/03/09 04:45:17;;;;;;;22.55;12.35;;;0.20;99.90;;;;;;5116449;28;20028;-69
2021/03/09 04:47:43;;;;;;;21.80;12.52;;;0.30;99.90;;;;;;5116271;28;20028;-69
2021/03/09 04:50:13;;;;;;;29.23;13.82;;;0.30;99.90;;;;;;5097486;28;20024;-68
2021/03/09 04:52:39;;;;;;;28.98;13.60;;;0.20;99.90;;;;;;5097536;28;20127;-69
2021/03/09 04:55:06;;;;;;;25.50;13.45;;;0.20;99.90;;;;;;5097803;28;20024;-69
2021/03/09 04:57:43;;;;;;;27.00;13.95;;;0.20;99.90;;;;;;5115947;28;20027;-69
2021/03/09 05:00:14;;;;;;;27.63;13.30;;;0.10;99.90;;;;;;5116521;28;20430;-69
2021/03/09 05:02:42;;;;;;;32.20;14.32;;;0.10;99.90;;;;;;5117041;28;20115;-69
2021/03/09 05:05:08;;;;;;;28.60;14.27;;;0.10;99.90;;;;;;5118174;28;20119;-69
2021/03/09 05:07:33;;;;;;;27.52;13.43;;;0.10;99.90;;;;;;5118395;28;20057;-70
2021/03/09 05:09:59;;;;;;;27.00;13.50;;;0.10;99.90;;;;;;5119136;28;20101;-68
2021/03/09 05:12:25;;;;;;;28.07;13.77;;;0.10;99.90;;;;;;5099063;28;20032;-70
2021/03/09 05:14:50;;;;;;;27.60;14.23;;;0.20;99.90;;;;;;5116452;28;20031;-69
2021/03/09 05:17:16;;;;;;;27.10;13.57;;;0.10;99.90;;;;;;5115823;28;20070;-69
2021/03/09 05:19:42;;;;;;;26.03;14.03;;;0.20;99.90;;;;;;5115885;28;20028;-69
2021/03/09 05:22:07;;;;;;;28.87;14.17;;;0.10;99.90;;;;;;5097795;28;20066;-68
2021/03/09 05:24:33;;;;;;;33.57;14.07;;;0.10;99.90;;;;;;5115924;28;20096;-68
2021/03/09 05:26:58;;;;;;;29.73;13.83;;;0.10;99.90;;;;;;5097682;28;20110;-69
2021/03/09 05:29:24;;;;;;;23.77;13.47;;;0.10;99.90;;;;;;5118172;28;20024;-70
2021/03/09 05:31:50;;;;;;;28.67;13.30;;;0.20;99.90;;;;;;5115491;28;20112;-69
2021/03/09 05:34:15;;;;;;;23.90;13.17;;;0.20;99.90;;;;;;5115507;28;20460;-69
2021/03/09 05:36:41;;;;;;;27.40;12.90;;;0.20;99.90;;;;;;5096727;28;20019;-69
2021/03/09 05:39:07;;;;;;;23.17;12.57;;;0.30;99.90;;;;;;5114656;28;20055;-69
2021/03/09 05:41:35;;;;;;;26.80;13.83;;;0.30;99.90;;;;;;5115170;28;20118;-69
2021/03/09 05:44:02;;;;;;;29.23;14.02;;;0.30;99.90;;;;;;5114928;28;20028;-69
2021/03/09 05:46:30;;;;;;;30.75;14.55;;;0.30;99.90;;;;;;5114915;28;20102;-69
2021/03/09 05:48:55;;;;;;;27.17;15.50;;;0.30;99.90;;;;;;5096541;28;20024;-70
2021/03/09 05:51:21;;;;;;;29.47;14.93;;;0.30;99.90;;;;;;5096515;28;20020;-69
2021/03/09 05:53:47;;;;;;;30.83;14.53;;;0.30;99.90;;;;;;5114642;28;20035;-68
2021/03/09 05:56:13;;;;;;;27.30;15.07;;;0.30;99.90;;;;;;5114663;28;20023;-69
2021/03/09 05:58:38;;;;;;;29.43;14.90;;;0.30;99.90;;;;;;5114913;28;20527;-69
2021/03/09 06:01:04;;;;;;;26.57;13.50;;;0.30;99.90;;;;;;5096282;28;20118;-68
2021/03/09 06:03:30;;;;;;;25.17;13.87;;;0.30;99.90;;;;;;5114674;28;20027;-69
2021/03/09 06:05:56;;;;;;;28.30;15.60;;;0.30;99.90;;;;;;5096586;28;20015;-68
2021/03/09 06:08:21;;;;;;;29.00;14.85;;;0.30;99.90;;;;;;5096065;28;20020;-68
2021/03/09 06:10:49;;;;;;;27.57;14.03;;;0.40;99.90;;;;;;5096209;28;20118;-68
2021/03/09 06:13:47;;;;;;;33.75;15.38;;;0.40;99.90;;;;;;5114455;28;20034;-67
2021/03/09 06:16:14;;;;;;;26.70;13.70;;;0.40;99.90;;;;;;5069099;28;20108;-68
2021/03/09 06:18:55;;;;;;;;;;;0.50;99.90;;;;;;5096148;28;20024;-67
2021/03/09 06:21:22;;;;;;;23.67;13.20;;;0.50;99.90;;;;;;5114760;28;19927;-66
2021/03/09 06:23:48;;;;;;;;;;;0.50;99.90;;;;;;5114602;28;20028;-66
2021/03/09 06:26:33;;;;;;;29.40;14.05;;;0.50;99.90;;;;;;5095407;28;19907;-68
2021/03/09 06:29:11;;;;;;;31.73;14.82;;;0.60;99.90;;;;;;5113607;28;20369;-70
2021/03/09 06:31:37;;;;;;;;;;;0.70;99.90;;;;;;5114393;28;20365;-70
2021/03/09 06:34:25;;;;;;;29.27;14.30;;;0.70;99.90;;;;;;5113958;28;19922;-68
2021/03/09 06:37:06;;;;;;;28.35;13.77;;;0.70;99.90;;;;;;5114019;28;20023;-68
2021/03/09 06:39:58;;;;;;;27.60;14.82;;;0.70;99.90;;;;;;5113641;28;20023;-67
2021/03/09 06:42:35;;;;;;;25.50;14.00;;;0.70;99.90;;;;;;5113686;28;20484;-70
2021/03/09 06:45:12;;;;;;;30.88;15.95;;;0.70;99.90;;;;;;5114158;28;20076;-71
2021/03/09 06:47:39;;;;;;;27.48;15.30;;;0.70;99.90;;;;;;5112833;28;20024;-71
2021/03/09 06:50:09;;;;;;;30.90;14.48;;;0.80;99.90;;;;;;5094425;28;20023;-71
2021/03/09 06:52:35;;;;;;;26.30;14.20;;;0.90;99.90;;;;;;5095284;28;20034;-70
2021/03/09 06:55:01;;;;;;;28.70;14.52;;;0.90;99.90;;;;;;5113949;28;20020;-71
2021/03/09 06:57:27;;;;;;;30.38;15.15;;;1.00;99.90;;;;;;5113745;28;20043;-69
2021/03/09 06:59:55;;;;;;;31.27;15.20;;;1.00;99.90;;;;;;5113706;28;20024;-68
2021/03/09 07:02:28;;;;;;;30.98;15.70;;;1.10;99.90;;;;;;5113685;28;20490;-68
2021/03/09 07:05:09;;;;;;;27.50;15.40;;;1.20;99.90;;;;;;5095495;28;20027;-67
2021/03/09 07:07:40;;;;;;;29.83;15.10;;;1.20;99.90;;;;;;5113408;28;20502;-66
2021/03/09 07:10:07;;;;;;;26.48;14.90;;;1.20;99.90;;;;;;5113427;28;20111;-68
2021/03/09 07:12:35;;;;;;;30.17;15.13;;;1.30;99.90;;;;;;5113371;28;20034;-72
2021/03/09 07:15:03;;;;;;;27.90;14.75;;;1.40;99.90;;;;;;5113485;28;20132;-73
2021/03/09 07:17:31;;;;;;;28.90;15.07;;;1.40;99.90;;;;;;5094928;28;20084;-72
2021/03/09 07:19:58;;;;;;;27.65;15.93;;;1.50;99.90;;;;;;5113067;28;20051;-73
2021/03/09 07:22:25;;;;;;;27.85;14.38;;;1.60;99.90;;;;;;5098621;28;20030;-72
2021/03/09 07:25:02;;;;;;;31.67;15.57;;;1.70;99.90;;;;;;5114114;28;20012;-72
2021/03/09 07:27:51;;;;;;;26.08;14.45;;;1.70;99.90;;;;;;5094835;28;20020;-72
2021/03/09 07:30:22;;;;;;;27.10;14.02;;;1.80;99.90;;;;;;5113113;28;20102;-74
2021/03/09 07:32:52;;;;;;;25.67;14.38;;;1.90;99.90;;;;;;5095318;28;20383;-72
2021/03/09 07:35:20;;;;;;;25.70;14.85;;;2.00;99.90;;;;;;5095022;28;20115;-73
2021/03/09 07:37:47;;;;;;;40.33;21.60;;;2.10;99.90;;;;;;5094808;28;20395;-73
2021/03/09 07:40:13;;;;;;;;;;;2.20;99.90;;;;;;5095293;28;20019;-73
2021/03/09 07:42:40;;;;;;;25.92;14.57;;;2.20;99.90;;;;;;5113273;28;19952;-72
2021/03/09 07:45:11;;;;;;;25.38;13.75;;;2.40;99.90;;;;;;5094898;28;20031;-73
2021/03/09 07:47:44;;;;;;;26.90;14.52;;;2.50;99.90;;;;;;5094936;28;20555;-71
2021/03/09 07:50:15;;;;;;;31.77;15.38;;;2.50;99.90;;;;;;5094931;28;20035;-72
2021/03/09 07:53:05;;;;;;;25.33;13.90;;;2.70;99.90;;;;;;5113219;28;20027;-72
2021/03/09 07:55:31;;;;;;;26.83;14.95;;;2.70;99.90;;;;;;5083053;28;20031;-72
2021/03/09 07:58:24;;;;;;;28.35;14.75;;;2.80;99.90;;;;;;5094708;28;20042;-73
2021/03/09 08:00:59;;;;;;;25.05;14.25;;;2.90;99.90;;;;;;5095356;28;20031;-72
2021/03/09 08:03:32;;;;;;;26.38;14.60;;;2.90;99.90;;;;;;5098385;28;20107;-71
2021/03/09 08:05:58;;;;;;;23.52;13.93;;;3.00;99.90;;;;;;5098355;28;20508;-71
2021/03/09 08:08:37;;;;;;;;;;;3.00;99.90;;;;;;5099305;28;20066;-71
2021/03/09 08:11:07;;;;;;;29.48;15.20;;;3.00;99.90;;;;;;5117056;28;19911;-67
2021/03/09 08:13:33;;;;;;;26.20;15.43;;;3.00;99.90;;;;;;5116555;28;20024;-68
2021/03/09 08:16:21;;;;;;;27.65;14.90;;;2.90;99.90;;;;;;5116657;28;20384;-68
2021/03/09 08:18:54;;;;;;;23.50;13.95;;;2.90;99.90;;;;;;5116447;28;20028;-69
2021/03/09 08:21:45;;;;;;;26.30;15.02;;;3.00;99.90;;;;;;5099002;28;20089;-74
2021/03/09 08:24:11;;;;;;;23.25;13.10;;;3.00;99.90;;;;;;5116436;28;20091;-69
2021/03/09 08:26:39;;;;;;;30.27;15.20;;;3.10;99.90;;;;;;5097773;28;20050;-68
2021/03/09 08:29:30;;;;;;;24.63;13.90;;;3.20;99.90;;;;;;5115918;28;20095;-70
2021/03/09 08:32:23;;;;;;;29.08;14.18;;;3.30;99.90;;;;;;5116091;28;20030;-69
2021/03/09 08:35:09;;;;;;;27.98;14.13;;;3.60;99.90;;;;;;5116221;28;20033;-69
2021/03/09 08:37:35;;;;;;;24.05;13.95;;;3.90;99.90;;;;;;5096871;28;20544;-71
2021/03/09 08:40:21;;;;;;;24.87;13.73;;;4.00;99.90;;;;;;5116484;28;20027;-69
2021/03/09 08:43:02;;;;;;;23.00;14.20;;;4.10;99.90;;;;;;5116155;28;20415;-72
2021/03/09 08:45:42;;;;;;;26.23;14.73;;;4.30;99.90;;;;;;5116223;28;20186;-69
2021/03/09 08:48:09;;;;;;;27.05;14.30;;;4.50;99.90;;;;;;5116638;28;20015;-68
2021/03/09 08:50:48;;;;;;;23.85;14.02;;;4.50;99.90;;;;;;5119040;28;20057;-69
2021/03/09 08:53:25;;;;;;;26.00;14.23;;;4.60;99.90;;;;;;5117590;28;20043;-67
2021/03/09 08:55:59;;;;;;;21.45;13.48;;;4.70;99.90;;;;;;5116701;28;20426;-68
2021/03/09 08:58:26;;;;;;;25.92;13.82;;;4.80;99.90;;;;;;5116604;28;20023;-69
2021/03/09 09:00:51;;;;;;;;;;;4.90;99.90;;;;;;5099767;28;20395;-71
2021/03/09 09:03:36;;;;;;;26.20;13.82;;;4.90;99.90;;;;;;5116972;28;19935;-72
2021/03/09 09:06:03;;;;;;;23.05;14.40;;;4.90;99.90;;;;;;5116624;28;20020;-71
2021/03/09 09:08:29;;;;;;;;;;;5.00;99.90;;;;;;5116515;28;20410;-71
2021/03/09 09:10:57;;;;;;;25.33;13.65;;;5.40;99.90;;;;;;5097624;28;19914;-70
2021/03/09 09:13:30;;;;;;;20.08;13.18;;;5.70;99.90;;;;;;5096347;28;20476;-70
2021/03/09 09:15:56;;;;;;;21.23;12.88;;;5.90;99.90;;;;;;5097082;28;20076;-70
2021/03/09 09:18:22;;;;;;;26.70;13.67;;;6.20;99.90;;;;;;5115204;28;20031;-70
2021/03/09 09:20:50;;;;;;;22.95;12.75;;;6.70;99.90;;;;;;5096945;28;20799;-67
2021/03/09 09:23:21;;;;;;;21.52;13.27;;;7.10;99.90;;;;;;5115681;28;20375;-68
2021/03/09 09:25:51;;;;;;;22.25;13.45;;;7.50;99.90;;;;;;5115934;28;20024;-68
2021/03/09 09:28:33;;;;;;;22.63;13.00;;;7.80;99.50;;;;;;5115324;28;20102;-71
2021/03/09 09:31:10;;;;;;;21.63;12.20;;;8.10;98.40;;;;;;5115190;28;20027;-71
2021/03/09 09:33:36;;;;;;;20.45;12.32;;;8.50;97.40;;;;;;5115080;28;20102;-73
2021/03/09 09:36:03;;;;;;;24.70;13.55;;;8.80;96.80;;;;;;5114933;28;20031;-72
2021/03/09 09:38:28;;;;;;;19.30;13.02;;;8.90;95.50;;;;;;5115256;28;20023;-72
2021/03/09 09:40:57;;;;;;;18.17;12.93;;;9.00;95.20;;;;;;5096301;28;20483;-71
2021/03/09 09:43:28;;;;;;;19.95;12.63;;;8.90;94.70;;;;;;5114625;28;20103;-71
2021/03/09 09:46:01;;;;;;;24.90;13.02;;;9.00;95.10;;;;;;5114332;28;20016;-72
2021/03/09 09:48:32;;;;;;;21.17;14.40;;;9.40;94.50;;;;;;5096088;28;20476;-73
2021/03/09 09:51:00;;;;;;;20.60;13.68;;;9.60;93.50;;;;;;5096166;28;20032;-72
2021/03/09 09:53:34;;;;;;;22.63;13.55;;;9.70;92.10;;;;;;5115233;28;20027;-71
2021/03/09 09:56:01;;;;;;;17.27;11.88;;;10.10;91.60;;;;;;5114751;28;20050;-68
2021/03/09 09:58:50;;;;;;;18.42;13.65;;;10.30;89.40;;;;;;5096487;28;20032;-70
2021/03/09 10:01:32;;;;;;;19.42;13.07;;;10.30;88.90;;;;;;5116255;28;20020;-68
2021/03/09 10:04:05;;;;;;;18.70;13.40;;;10.10;90.10;;;;;;5116351;28;20023;-69
2021/03/09 10:06:38;;;;;;;18.92;12.40;;;10.20;89.20;;;;;;5114942;28;20065;-67
2021/03/09 10:09:19;;;;;;;16.38;12.45;;;10.30;89.50;;;;;;5114954;28;20046;-72
2021/03/09 10:11:58;;;;;;;16.98;11.95;;;10.40;87.50;;;;;;5096189;28;20019;-71
2021/03/09 10:14:26;;;;;;;16.83;12.65;;;10.60;86.10;;;;;;5095889;28;20555;-74
2021/03/09 10:16:52;;;;;;;17.63;12.82;;;11.00;84.50;;;;;;5114116;28;20025;-69
2021/03/09 10:19:21;;;;;;;18.15;13.40;;;11.40;81.70;;;;;;5096306;28;20026;-69
2021/03/09 10:21:48;;;;;;;16.85;12.25;;;11.60;78.60;;;;;;5096109;28;20027;-69
2021/03/09 10:24:31;;;;;;;18.33;12.02;;;11.70;77.10;;;;;;5113827;28;20038;-67
2021/03/09 10:26:59;;;;;;;16.92;12.60;;;11.40;76.30;;;;;;5114155;28;20064;-67
2021/03/09 10:29:26;;;;;;;15.43;11.68;;;11.50;76.90;;;;;;5114333;28;20495;-68
2021/03/09 10:31:54;;;;;;;19.38;12.80;;;11.50;75.40;;;;;;5114503;28;20034;-69
2021/03/09 10:34:34;;;;;;;18.38;11.80;;;11.20;75.50;;;;;;5096707;28;20052;-69
2021/03/09 10:37:01;;;;;;;20.63;12.45;;;10.70;78.80;;;;;;5114138;28;20106;-69
2021/03/09 10:39:28;;;;;;;17.17;12.85;;;10.50;79.60;;;;;;5097073;28;20386;-71
2021/03/09 10:41:54;;;;;;;20.67;13.57;;;10.30;81.30;;;;;;5115576;28;20181;-69
2021/03/09 10:44:34;;;;;;;21.60;13.07;;;10.20;83.40;;;;;;5115824;28;20024;-70
2021/03/09 10:47:02;;;;;;;20.90;12.93;;;10.40;83.50;;;;;;5115804;28;20024;-69
2021/03/09 10:49:29;;;;;;;18.30;13.15;;;10.50;83.30;;;;;;5097809;28;20551;-69
2021/03/09 10:52:05;;;;;;;18.45;12.98;;;10.30;84.90;;;;;;5115517;28;20032;-69
2021/03/09 10:54:32;;;;;;;20.23;13.70;;;10.10;86.30;;;;;;5118442;28;20534;-71
2021/03/09 10:56:57;;;;;;;;;;;9.90;86.80;;;;;;5117269;28;20058;-69
2021/03/09 10:59:24;;;;;;;20.50;13.48;;;9.80;90.20;;;;;;5097810;28;19911;-70
2021/03/09 11:01:50;;;;;;;21.15;13.48;;;10.20;89.20;;;;;;5098761;28;20028;-69
2021/03/09 11:04:15;;;;;;;19.33;13.48;;;10.40;86.40;;;;;;5115994;28;20024;-70
2021/03/09 11:06:41;;;;;;;23.63;14.83;;;10.50;85.90;;;;;;5116969;28;20027;-70
2021/03/09 11:09:07;;;;;;;21.93;13.93;;;10.20;87.20;;;;;;5116138;28;20253;-69
2021/03/09 11:11:33;;;;;;;19.08;12.55;;;10.00;88.50;;;;;;5116438;28;20110;-69
2021/03/09 11:13:59;;;;;;;20.92;13.65;;;9.60;87.90;;;;;;5116209;28;20032;-69
2021/03/09 11:16:24;;;;;;;22.52;13.35;;;9.60;89.20;;;;;;5116389;28;20020;-69
2021/03/09 11:18:50;;;;;;;19.43;13.07;;;9.50;90.20;;;;;;5097998;28;20430;-69
2021/03/09 11:21:16;;;;;;;17.67;12.13;;;9.40;89.40;;;;;;5118342;28;20028;-68
2021/03/09 11:23:41;;;;;;;18.47;12.47;;;9.40;90.30;;;;;;5123295;28;20030;-70
2021/03/09 11:26:07;;;;;;;20.10;12.07;;;9.50;89.50;;;;;;5100423;28;20027;-69
2021/03/09 11:28:36;;;;;;;18.35;12.73;;;9.70;89.90;;;;;;5116049;28;20103;-69
2021/03/09 11:31:01;;;;;;;17.85;12.07;;;9.50;87.90;;;;;;5116289;28;20039;-69
2021/03/09 11:33:27;;;;;;;17.60;12.13;;;9.40;90.00;;;;;;5116597;28;20019;-69
2021/03/09 11:35:53;;;;;;;18.58;11.20;;;9.20;89.50;;;;;;5116042;28;20095;-69
2021/03/09 11:38:20;;;;;;;19.57;13.07;;;9.10;90.60;;;;;;5119534;28;20035;-69
2021/03/09 11:40:46;;;;;;;19.50;13.05;;;9.00;90.80;;;;;;5120606;28;20081;-67
2021/03/09 11:43:12;;;;;;;21.73;12.77;;;8.80;91.80;;;;;;5121764;28;20040;-69
2021/03/09 11:45:37;;;;;;;17.57;11.57;;;8.80;92.10;;;;;;5122888;28;20092;-67
2021/03/09 11:48:03;;;;;;;18.00;10.90;;;8.90;92.20;;;;;;5120732;28;20253;-71
2021/03/09 11:50:29;;;;;;;17.98;11.85;;;9.00;91.00;;;;;;5121557;28;20059;-68
2021/03/09 11:52:55;;;;;;;16.80;11.70;;;9.10;90.80;;;;;;5120150;28;20042;-71
2021/03/09 11:55:20;;;;;;;16.77;11.57;;;9.10;89.60;;;;;;5122515;28;20050;-68
2021/03/09 11:57:49;;;;;;;14.83;10.10;;;9.00;89.10;;;;;;5114731;28;20035;-67
2021/03/09 12:00:18;;;;;;;15.23;10.65;;;8.90;88.30;;;;;;5121161;28;20027;-73
2021/03/09 12:02:44;;;;;;;15.13;10.57;;;8.90;88.30;;;;;;5100271;28;20024;-69
2021/03/09 12:05:11;;;;;;;16.13;10.30;;;8.90;89.10;;;;;;5119602;28;20452;-69
2021/03/09 12:07:36;;;;;;;21.98;11.25;;;8.80;90.30;;;;;;5118234;28;20115;-68
2021/03/09 12:10:02;;;;;;;17.60;11.10;;;8.80;90.40;;;;;;5119145;28;20051;-70
2021/03/09 12:12:28;;;;;;;14.55;10.18;;;8.90;90.50;;;;;;5118257;28;20020;-69
2021/03/09 12:14:54;;;;;;;15.43;9.40;;;8.80;89.10;;;;;;5100788;28;20058;-71
2021/03/09 12:17:19;;;;;;;17.52;10.90;;;8.90;89.30;;;;;;5099643;28;20023;-70
2021/03/09 12:19:45;;;;;;;15.77;10.93;;;8.80;89.90;;;;;;5117443;28;20035;-70
2021/03/09 12:22:11;;;;;;;14.97;10.37;;;8.90;90.00;;;;;;5117505;28;20574;-69
2021/03/09 12:24:36;;;;;;;15.57;10.20;;;8.80;90.20;;;;;;5099306;28;20027;-69
2021/03/09 12:27:02;;;;;;;13.77;9.57;;;8.80;90.10;;;;;;5116736;28;20483;-68
2021/03/09 12:29:29;;;;;;;15.88;9.32;;;8.90;89.00;;;;;;5116891;28;20020;-74
2021/03/09 12:31:54;;;;;;;14.65;9.43;;;8.90;89.70;;;;;;5098501;28;20031;-71
2021/03/09 12:34:20;;;;;;;14.70;9.80;;;9.10;89.20;;;;;;5116876;28;20030;-70
2021/03/09 12:36:46;;;;;;;12.60;8.83;;;9.10;87.10;;;;;;5116694;28;20434;-72
2021/03/09 12:39:11;;;;;;;13.60;8.67;;;9.20;86.70;;;;;;5117290;28;20468;-74
2021/03/09 12:41:37;;;;;;;14.10;9.10;;;9.20;85.90;;;;;;5099651;28;20451;-72
2021/03/09 12:44:03;;;;;;;13.87;8.80;;;9.20;85.50;;;;;;5116612;28;20028;-70
2021/03/09 12:46:28;;;;;;;11.77;9.20;;;9.00;85.20;;;;;;5116638;28;20396;-73
2021/03/09 12:48:54;;;;;;;12.67;8.47;;;9.00;84.00;;;;;;5097697;28;20031;-69
2021/03/09 12:51:20;;;;;;;12.30;8.50;;;8.90;84.60;;;;;;5097976;28;20032;-72
2021/03/09 12:53:45;;;;;;;13.40;9.00;;;8.90;85.00;;;;;;5116453;28;20058;-72
2021/03/09 12:56:12;;;;;;;14.70;9.00;;;8.80;84.70;;;;;;5097830;28;20039;-70